LOWG/GRZ METAR and TAF weather

Enter ICAO airport designator
Station Type Date Time Source
LOWG METAR 2020/01/28 04:50 UTC NOAA

LOWG 280450Z AUTO VRB01KT 6000 SCT003 BKN080 M01/M02 Q1006 R17/19//95 TEMPO 3000 BR BKN003


Station Type Date Time Source
LOWG Decoded METAR 2020/01/28 04:50 UTC NOAA

Graz-Thalerhof-Flughafen, Austria (LOWG) 47-00N 015-26E 347M
Jan 27, 2020 - 11:50 PM EST / 2020.01.28 0450 UTC
Wind: Variable at 1 MPH (1 KT):0
Visibility: 3 mile(s):0
Sky conditions: mostly cloudy
Temperature: 30 F (-1 C)
Dew Point: 28 F (-2 C)
Relative Humidity: 92%
Pressure (altimeter): 29.71 in. Hg (1006 hPa)
ob: LOWG 280450Z AUTO VRB01KT 6000 SCT003 BKN080 M01/M02 Q1006 R17/19//95 TEMPO 3000 BR BKN003
cycle: 5

Station Type Date Time Source
LOWG TAF 2020/01/28 03:43 UTC NOAA

TAF
AMD LOWG 280331Z 2803/2824 VRB02KT 4000 BR BKN003 TX05/2812Z TNM02/2804Z
TEMPO 2803/2807 0800 FZFG VV002
TEMPO 2814/2817 35015G25KT SHRA BKN035 FEW040TCU
BECMG 2817/2819 18007KT SCT030 SCT120
TEMPO 2819/2821 VRB02KT 1200 BCFG BKN002
TEMPO 2821/2824 0800 FZBCFG VV001

Example: see airport list